<?xml version="1.0" encoding="UTF-8" standalone="no" ?><gpx xmlns="http://www.topografix.com/GPX/1/1" xmlns:gpxx="http://www.garmin.com/xmlschemas/GpxExtensions/v3" xmlns:wptx1="http://www.garmin.com/xmlschemas/WaypointExtension/v1" xmlns:gpxtpx="http://www.garmin.com/xmlschemas/TrackPointExtension/v1" creator="GuideVTT.com" version="1.1" xmlns:xsi="http://www.w3.org/2001/XMLSchema-instance" xsi:schemaLocation="http://www.topografix.com/GPX/1/1 http://www.topografix.com/GPX/1/1/gpx.xsd http://www.garmin.com/xmlschemas/GpxExtensions/v3 http://www8.garmin.com/xmlschemas/GpxExtensionsv3.xsd http://www.garmin.com/xmlschemas/WaypointExtension/v1 http://www8.garmin.com/xmlschemas/WaypointExtensionv1.xsd http://www.garmin.com/xmlschemas/TrackPointExtension/v1 http://www.garmin.com/xmlschemas/TrackPointExtensionv1.xsd">
<metadata><link href="http://www.garmin.com"><text>Garmin International</text></link><time>2013-06-22T15:13:50Z</time></metadata>
<trk><name>parcours37.gpx</name><extensions><gpxx:TrackExtension><gpxx:DisplayColor>Cyan</gpxx:DisplayColor></gpxx:TrackExtension></extensions><trkseg>
<trkpt lat="46.34673330" lon="7.01786670"><ele>1321</ele><time>2005-07-21T13:02:31Z</time></trkpt>
<trkpt lat="46.34676670" lon="7.01771670"><ele>1318</ele><time>2005-07-21T13:02:55Z</time></trkpt>
<trkpt lat="46.34698330" lon="7.01778330"><ele>1316</ele><time>2005-07-21T13:03:05Z</time></trkpt>
<trkpt lat="46.34740000" lon="7.01816670"><ele>1316</ele><time>2005-07-21T13:03:16Z</time></trkpt>
<trkpt lat="46.34788330" lon="7.01856670"><ele>1316</ele><time>2005-07-21T13:03:28Z</time></trkpt>
<trkpt lat="46.34888330" lon="7.01903330"><ele>1321</ele><time>2005-07-21T13:04:05Z</time></trkpt>
<trkpt lat="46.34920000" lon="7.01923330"><ele>1322</ele><time>2005-07-21T13:04:18Z</time></trkpt>
<trkpt lat="46.34995000" lon="7.01983330"><ele>1319</ele><time>2005-07-21T13:04:57Z</time></trkpt>
<trkpt lat="46.35068330" lon="7.02051670"><ele>1318</ele><time>2005-07-21T13:05:13Z</time></trkpt>
<trkpt lat="46.35115000" lon="7.02088330"><ele>1320</ele><time>2005-07-21T13:05:24Z</time></trkpt>
<trkpt lat="46.35163330" lon="7.02156670"><ele>1322</ele><time>2005-07-21T13:05:39Z</time></trkpt>
<trkpt lat="46.35203330" lon="7.02205000"><ele>1325</ele><time>2005-07-21T13:06:03Z</time></trkpt>
<trkpt lat="46.35253330" lon="7.02246670"><ele>1334</ele><time>2005-07-21T13:06:41Z</time></trkpt>
<trkpt lat="46.35273330" lon="7.02271670"><ele>1336</ele><time>2005-07-21T13:06:59Z</time></trkpt>
<trkpt lat="46.35338330" lon="7.02331670"><ele>1340</ele><time>2005-07-21T13:07:29Z</time></trkpt>
<trkpt lat="46.35426670" lon="7.02421670"><ele>1345</ele><time>2005-07-21T13:07:58Z</time></trkpt>
<trkpt lat="46.35466670" lon="7.02468330"><ele>1348</ele><time>2005-07-21T13:08:14Z</time></trkpt>
<trkpt lat="46.35496670" lon="7.02491670"><ele>1349</ele><time>2005-07-21T13:08:29Z</time></trkpt>
<trkpt lat="46.35500000" lon="7.02476670"><ele>1350</ele><time>2005-07-21T13:08:36Z</time></trkpt>
<trkpt lat="46.35400000" lon="7.02285000"><ele>1368</ele><time>2005-07-21T13:10:15Z</time></trkpt>
<trkpt lat="46.35390000" lon="7.02261670"><ele>1371</ele><time>2005-07-21T13:10:26Z</time></trkpt>
<trkpt lat="46.35383330" lon="7.02226670"><ele>1376</ele><time>2005-07-21T13:10:39Z</time></trkpt>
<trkpt lat="46.35391670" lon="7.02186670"><ele>1376</ele><time>2005-07-21T13:10:53Z</time></trkpt>
<trkpt lat="46.35393330" lon="7.02186670"><ele>1376</ele><time>2005-07-21T13:10:54Z</time></trkpt>
<trkpt lat="46.35415000" lon="7.02215000"><ele>1377</ele><time>2005-07-21T13:11:09Z</time></trkpt>
<trkpt lat="46.35441670" lon="7.02235000"><ele>1381</ele><time>2005-07-21T13:11:25Z</time></trkpt>
<trkpt lat="46.35445000" lon="7.02215000"><ele>1382</ele><time>2005-07-21T13:11:35Z</time></trkpt>
<trkpt lat="46.35433330" lon="7.02171670"><ele>1387</ele><time>2005-07-21T13:11:51Z</time></trkpt>
<trkpt lat="46.35435000" lon="7.02130000"><ele>1390</ele><time>2005-07-21T13:12:06Z</time></trkpt>
<trkpt lat="46.35456670" lon="7.02100000"><ele>1390</ele><time>2005-07-21T13:12:20Z</time></trkpt>
<trkpt lat="46.35456670" lon="7.02096670"><ele>1390</ele><time>2005-07-21T13:12:21Z</time></trkpt>
<trkpt lat="46.35450000" lon="7.02078330"><ele>1390</ele><time>2005-07-21T13:12:28Z</time></trkpt>
<trkpt lat="46.35425000" lon="7.02053330"><ele>1394</ele><time>2005-07-21T13:12:44Z</time></trkpt>
<trkpt lat="46.35405000" lon="7.02006670"><ele>1398</ele><time>2005-07-21T13:13:00Z</time></trkpt>
<trkpt lat="46.35376670" lon="7.01958330"><ele>1402</ele><time>2005-07-21T13:13:18Z</time></trkpt>
<trkpt lat="46.35355000" lon="7.01928330"><ele>1405</ele><time>2005-07-21T13:13:32Z</time></trkpt>
<trkpt lat="46.35315000" lon="7.01881670"><ele>1407</ele><time>2005-07-21T13:13:58Z</time></trkpt>
<trkpt lat="46.35316670" lon="7.01860000"><ele>1408</ele><time>2005-07-21T13:14:07Z</time></trkpt>
<trkpt lat="46.35338330" lon="7.01871670"><ele>1411</ele><time>2005-07-21T13:14:19Z</time></trkpt>
<trkpt lat="46.35373330" lon="7.01898330"><ele>1413</ele><time>2005-07-21T13:14:37Z</time></trkpt>
<trkpt lat="46.35391670" lon="7.01916670"><ele>1415</ele><time>2005-07-21T13:14:48Z</time></trkpt>
<trkpt lat="46.35413330" lon="7.01940000"><ele>1418</ele><time>2005-07-21T13:15:05Z</time></trkpt>
<trkpt lat="46.35443330" lon="7.01963330"><ele>1421</ele><time>2005-07-21T13:15:23Z</time></trkpt>
<trkpt lat="46.35473330" lon="7.01983330"><ele>1423</ele><time>2005-07-21T13:15:39Z</time></trkpt>
<trkpt lat="46.35510000" lon="7.01993330"><ele>1426</ele><time>2005-07-21T13:15:57Z</time></trkpt>
<trkpt lat="46.35538330" lon="7.01976670"><ele>1430</ele><time>2005-07-21T13:16:12Z</time></trkpt>
<trkpt lat="46.35571670" lon="7.01943330"><ele>1434</ele><time>2005-07-21T13:16:32Z</time></trkpt>
<trkpt lat="46.35598330" lon="7.01908330"><ele>1436</ele><time>2005-07-21T13:16:51Z</time></trkpt>
<trkpt lat="46.35620000" lon="7.01901670"><ele>1441</ele><time>2005-07-21T13:17:02Z</time></trkpt>
<trkpt lat="46.35638330" lon="7.01923330"><ele>1443</ele><time>2005-07-21T13:17:15Z</time></trkpt>
<trkpt lat="46.35651670" lon="7.01958330"><ele>1443</ele><time>2005-07-21T13:17:28Z</time></trkpt>
<trkpt lat="46.35666670" lon="7.01988330"><ele>1445</ele><time>2005-07-21T13:17:40Z</time></trkpt>
<trkpt lat="46.35690000" lon="7.02013330"><ele>1446</ele><time>2005-07-21T13:17:56Z</time></trkpt>
<trkpt lat="46.35740000" lon="7.02018330"><ele>1454</ele><time>2005-07-21T13:18:25Z</time></trkpt>
<trkpt lat="46.35748330" lon="7.02038330"><ele>1457</ele><time>2005-07-21T13:18:36Z</time></trkpt>
<trkpt lat="46.35733330" lon="7.02070000"><ele>1458</ele><time>2005-07-21T13:18:50Z</time></trkpt>
<trkpt lat="46.35711670" lon="7.02096670"><ele>1459</ele><time>2005-07-21T13:19:06Z</time></trkpt>
<trkpt lat="46.35703330" lon="7.02120000"><ele>1459</ele><time>2005-07-21T13:19:27Z</time></trkpt>
<trkpt lat="46.35703330" lon="7.02130000"><ele>1461</ele><time>2005-07-21T13:19:32Z</time></trkpt>
<trkpt lat="46.35710000" lon="7.02130000"><ele>1463</ele><time>2005-07-21T13:19:37Z</time></trkpt>
<trkpt lat="46.35725000" lon="7.02111670"><ele>1467</ele><time>2005-07-21T13:19:52Z</time></trkpt>
<trkpt lat="46.35791670" lon="7.02078330"><ele>1480</ele><time>2005-07-21T13:20:47Z</time></trkpt>
<trkpt lat="46.35800000" lon="7.02053330"><ele>1482</ele><time>2005-07-21T13:21:04Z</time></trkpt>
<trkpt lat="46.35793330" lon="7.01961670"><ele>1494</ele><time>2005-07-21T13:21:59Z</time></trkpt>
<trkpt lat="46.35788330" lon="7.01938330"><ele>1499</ele><time>2005-07-21T13:22:13Z</time></trkpt>
<trkpt lat="46.35778330" lon="7.01918330"><ele>1500</ele><time>2005-07-21T13:22:28Z</time></trkpt>
<trkpt lat="46.35761670" lon="7.01896670"><ele>1499</ele><time>2005-07-21T13:22:45Z</time></trkpt>
<trkpt lat="46.35748330" lon="7.01868330"><ele>1502</ele><time>2005-07-21T13:23:02Z</time></trkpt>
<trkpt lat="46.35726670" lon="7.01805000"><ele>1508</ele><time>2005-07-21T13:23:37Z</time></trkpt>
<trkpt lat="46.35705000" lon="7.01725000"><ele>1520</ele><time>2005-07-21T13:24:27Z</time></trkpt>
<trkpt lat="46.35683330" lon="7.01678330"><ele>1525</ele><time>2005-07-21T13:24:59Z</time></trkpt>
<trkpt lat="46.35668330" lon="7.01658330"><ele>1528</ele><time>2005-07-21T13:25:14Z</time></trkpt>
<trkpt lat="46.35643330" lon="7.01610000"><ele>1533</ele><time>2005-07-21T13:25:47Z</time></trkpt>
<trkpt lat="46.35638330" lon="7.01595000"><ele>1536</ele><time>2005-07-21T13:25:56Z</time></trkpt>
<trkpt lat="46.35646670" lon="7.01591670"><ele>1536</ele><time>2005-07-21T13:26:04Z</time></trkpt>
<trkpt lat="46.35665000" lon="7.01611670"><ele>1539</ele><time>2005-07-21T13:26:20Z</time></trkpt>
<trkpt lat="46.35695000" lon="7.01635000"><ele>1543</ele><time>2005-07-21T13:26:49Z</time></trkpt>
<trkpt lat="46.35725000" lon="7.01650000"><ele>1547</ele><time>2005-07-21T13:27:13Z</time></trkpt>
<trkpt lat="46.35740000" lon="7.01666670"><ele>1548</ele><time>2005-07-21T13:27:29Z</time></trkpt>
<trkpt lat="46.35750000" lon="7.01686670"><ele>1549</ele><time>2005-07-21T13:27:44Z</time></trkpt>
<trkpt lat="46.35758330" lon="7.01715000"><ele>1549</ele><time>2005-07-21T13:28:01Z</time></trkpt>
<trkpt lat="46.35771670" lon="7.01738330"><ele>1551</ele><time>2005-07-21T13:28:17Z</time></trkpt>
<trkpt lat="46.35786670" lon="7.01753330"><ele>1554</ele><time>2005-07-21T13:28:32Z</time></trkpt>
<trkpt lat="46.35810000" lon="7.01755000"><ele>1559</ele><time>2005-07-21T13:28:48Z</time></trkpt>
<trkpt lat="46.35843330" lon="7.01776670"><ele>1564</ele><time>2005-07-21T13:29:11Z</time></trkpt>
<trkpt lat="46.35843330" lon="7.01761670"><ele>1565</ele><time>2005-07-21T13:29:20Z</time></trkpt>
<trkpt lat="46.35823330" lon="7.01751670"><ele>1566</ele><time>2005-07-21T13:29:35Z</time></trkpt>
<trkpt lat="46.35791670" lon="7.01718330"><ele>1572</ele><time>2005-07-21T13:30:06Z</time></trkpt>
<trkpt lat="46.35781670" lon="7.01696670"><ele>1572</ele><time>2005-07-21T13:30:21Z</time></trkpt>
<trkpt lat="46.35758330" lon="7.01605000"><ele>1583</ele><time>2005-07-21T13:31:10Z</time></trkpt>
<trkpt lat="46.35645000" lon="7.01473330"><ele>1576</ele><time>2005-07-21T13:31:42Z</time></trkpt>
<trkpt lat="46.35608330" lon="7.01423330"><ele>1581</ele><time>2005-07-21T13:32:11Z</time></trkpt>
<trkpt lat="46.35583330" lon="7.01405000"><ele>1580</ele><time>2005-07-21T13:32:32Z</time></trkpt>
<trkpt lat="46.35548330" lon="7.01401670"><ele>1583</ele><time>2005-07-21T13:32:58Z</time></trkpt>
<trkpt lat="46.35541670" lon="7.01408330"><ele>1583</ele><time>2005-07-21T13:33:03Z</time></trkpt>
<trkpt lat="46.35526670" lon="7.01440000"><ele>1585</ele><time>2005-07-21T13:33:18Z</time></trkpt>
<trkpt lat="46.35518330" lon="7.01483330"><ele>1582</ele><time>2005-07-21T13:33:29Z</time></trkpt>
<trkpt lat="46.35510000" lon="7.01500000"><ele>1580</ele><time>2005-07-21T13:33:33Z</time></trkpt>
<trkpt lat="46.35488330" lon="7.01498330"><ele>1581</ele><time>2005-07-21T13:33:38Z</time></trkpt>
<trkpt lat="46.35471670" lon="7.01478330"><ele>1583</ele><time>2005-07-21T13:33:49Z</time></trkpt>
<trkpt lat="46.35458330" lon="7.01455000"><ele>1588</ele><time>2005-07-21T13:34:05Z</time></trkpt>
<trkpt lat="46.35451670" lon="7.01435000"><ele>1590</ele><time>2005-07-21T13:34:18Z</time></trkpt>
<trkpt lat="46.35461670" lon="7.01428330"><ele>1593</ele><time>2005-07-21T13:34:29Z</time></trkpt>
<trkpt lat="46.35466670" lon="7.01441670"><ele>1595</ele><time>2005-07-21T13:34:41Z</time></trkpt>
<trkpt lat="46.35471670" lon="7.01443330"><ele>1596</ele><time>2005-07-21T13:34:46Z</time></trkpt>
<trkpt lat="46.35480000" lon="7.01458330"><ele>1600</ele><time>2005-07-21T13:35:09Z</time></trkpt>
<trkpt lat="46.35486670" lon="7.01463330"><ele>1601</ele><time>2005-07-21T13:35:39Z</time></trkpt>
<trkpt lat="46.35493330" lon="7.01463330"><ele>1601</ele><time>2005-07-21T13:35:45Z</time></trkpt>
<trkpt lat="46.35496670" lon="7.01450000"><ele>1603</ele><time>2005-07-21T13:35:53Z</time></trkpt>
<trkpt lat="46.35481670" lon="7.01435000"><ele>1607</ele><time>2005-07-21T13:36:07Z</time></trkpt>
<trkpt lat="46.35463330" lon="7.01386670"><ele>1608</ele><time>2005-07-21T13:36:40Z</time></trkpt>
<trkpt lat="46.35448330" lon="7.01358330"><ele>1610</ele><time>2005-07-21T13:36:55Z</time></trkpt>
<trkpt lat="46.35421670" lon="7.01331670"><ele>1611</ele><time>2005-07-21T13:37:14Z</time></trkpt>
<trkpt lat="46.35346670" lon="7.01306670"><ele>1611</ele><time>2005-07-21T13:37:45Z</time></trkpt>
<trkpt lat="46.35303330" lon="7.01283330"><ele>1611</ele><time>2005-07-21T13:38:00Z</time></trkpt>
<trkpt lat="46.35241670" lon="7.01236670"><ele>1618</ele><time>2005-07-21T13:38:32Z</time></trkpt>
<trkpt lat="46.35213330" lon="7.01203330"><ele>1621</ele><time>2005-07-21T13:38:47Z</time></trkpt>
<trkpt lat="46.35213330" lon="7.01150000"><ele>1625</ele><time>2005-07-21T13:38:59Z</time></trkpt>
<trkpt lat="46.35208330" lon="7.01098330"><ele>1626</ele><time>2005-07-21T13:39:14Z</time></trkpt>
<trkpt lat="46.35190000" lon="7.01068330"><ele>1632</ele><time>2005-07-21T13:39:25Z</time></trkpt>
<trkpt lat="46.35165000" lon="7.01040000"><ele>1635</ele><time>2005-07-21T13:39:40Z</time></trkpt>
<trkpt lat="46.35136670" lon="7.01001670"><ele>1636</ele><time>2005-07-21T13:39:54Z</time></trkpt>
<trkpt lat="46.35068330" lon="7.00955000"><ele>1634</ele><time>2005-07-21T13:40:24Z</time></trkpt>
<trkpt lat="46.35025000" lon="7.00933330"><ele>1632</ele><time>2005-07-21T13:40:37Z</time></trkpt>
<trkpt lat="46.34993330" lon="7.00903330"><ele>1632</ele><time>2005-07-21T13:40:48Z</time></trkpt>
<trkpt lat="46.34960000" lon="7.00831670"><ele>1637</ele><time>2005-07-21T13:41:06Z</time></trkpt>
<trkpt lat="46.34956670" lon="7.00761670"><ele>1642</ele><time>2005-07-21T13:41:22Z</time></trkpt>
<trkpt lat="46.34960000" lon="7.00718330"><ele>1644</ele><time>2005-07-21T13:41:33Z</time></trkpt>
<trkpt lat="46.34960000" lon="7.00681670"><ele>1647</ele><time>2005-07-21T13:41:48Z</time></trkpt>
<trkpt lat="46.34963330" lon="7.00675000"><ele>1647</ele><time>2005-07-21T13:41:51Z</time></trkpt>
<trkpt lat="46.34971670" lon="7.00671670"><ele>1647</ele><time>2005-07-21T13:41:58Z</time></trkpt>
<trkpt lat="46.34995000" lon="7.00808330"><ele>1658</ele><time>2005-07-21T13:43:14Z</time></trkpt>
<trkpt lat="46.35011670" lon="7.00835000"><ele>1661</ele><time>2005-07-21T13:43:32Z</time></trkpt>
<trkpt lat="46.35033330" lon="7.00845000"><ele>1666</ele><time>2005-07-21T13:43:48Z</time></trkpt>
<trkpt lat="46.35085000" lon="7.00851670"><ele>1677</ele><time>2005-07-21T13:44:27Z</time></trkpt>
<trkpt lat="46.35151670" lon="7.00878330"><ele>1686</ele><time>2005-07-21T13:45:20Z</time></trkpt>
<trkpt lat="46.35173330" lon="7.00878330"><ele>1687</ele><time>2005-07-21T13:45:36Z</time></trkpt>
<trkpt lat="46.35211670" lon="7.00886670"><ele>1695</ele><time>2005-07-21T13:46:03Z</time></trkpt>
<trkpt lat="46.35221670" lon="7.00883330"><ele>1699</ele><time>2005-07-21T13:46:12Z</time></trkpt>
<trkpt lat="46.35226670" lon="7.00871670"><ele>1702</ele><time>2005-07-21T13:46:21Z</time></trkpt>
<trkpt lat="46.35198330" lon="7.00826670"><ele>1705</ele><time>2005-07-21T13:46:51Z</time></trkpt>
<trkpt lat="46.35253330" lon="7.00843330"><ele>1710</ele><time>2005-07-21T13:47:16Z</time></trkpt>
<trkpt lat="46.35283330" lon="7.00871670"><ele>1713</ele><time>2005-07-21T13:47:31Z</time></trkpt>
<trkpt lat="46.35295000" lon="7.00903330"><ele>1714</ele><time>2005-07-21T13:47:42Z</time></trkpt>
<trkpt lat="46.35321670" lon="7.00926670"><ele>1714</ele><time>2005-07-21T13:47:54Z</time></trkpt>
<trkpt lat="46.35363330" lon="7.00950000"><ele>1716</ele><time>2005-07-21T13:48:12Z</time></trkpt>
<trkpt lat="46.35405000" lon="7.00986670"><ele>1717</ele><time>2005-07-21T13:48:30Z</time></trkpt>
<trkpt lat="46.35443330" lon="7.01013330"><ele>1719</ele><time>2005-07-21T13:48:45Z</time></trkpt>
<trkpt lat="46.35470000" lon="7.01040000"><ele>1721</ele><time>2005-07-21T13:48:57Z</time></trkpt>
<trkpt lat="46.35496670" lon="7.01061670"><ele>1723</ele><time>2005-07-21T13:49:09Z</time></trkpt>
<trkpt lat="46.35546670" lon="7.01081670"><ele>1725</ele><time>2005-07-21T13:49:24Z</time></trkpt>
<trkpt lat="46.35585000" lon="7.01113330"><ele>1725</ele><time>2005-07-21T13:49:37Z</time></trkpt>
<trkpt lat="46.35621670" lon="7.01121670"><ele>1725</ele><time>2005-07-21T13:49:48Z</time></trkpt>
<trkpt lat="46.35651670" lon="7.01090000"><ele>1724</ele><time>2005-07-21T13:49:58Z</time></trkpt>
<trkpt lat="46.35671670" lon="7.01065000"><ele>1724</ele><time>2005-07-21T13:50:04Z</time></trkpt>
<trkpt lat="46.35691670" lon="7.01058330"><ele>1724</ele><time>2005-07-21T13:50:09Z</time></trkpt>
<trkpt lat="46.35720000" lon="7.01060000"><ele>1726</ele><time>2005-07-21T13:50:16Z</time></trkpt>
<trkpt lat="46.35735000" lon="7.01068330"><ele>1728</ele><time>2005-07-21T13:50:20Z</time></trkpt>
<trkpt lat="46.35785000" lon="7.01110000"><ele>1733</ele><time>2005-07-21T13:50:45Z</time></trkpt>
<trkpt lat="46.35810000" lon="7.01120000"><ele>1736</ele><time>2005-07-21T13:50:58Z</time></trkpt>
<trkpt lat="46.35843330" lon="7.01145000"><ele>1739</ele><time>2005-07-21T13:51:14Z</time></trkpt>
<trkpt lat="46.35876670" lon="7.01163330"><ele>1743</ele><time>2005-07-21T13:51:31Z</time></trkpt>
<trkpt lat="46.35903330" lon="7.01166670"><ele>1745</ele><time>2005-07-21T13:51:43Z</time></trkpt>
<trkpt lat="46.35921670" lon="7.01180000"><ele>1749</ele><time>2005-07-21T13:51:54Z</time></trkpt>
<trkpt lat="46.35950000" lon="7.01210000"><ele>1747</ele><time>2005-07-21T13:52:13Z</time></trkpt>
<trkpt lat="46.35980000" lon="7.01211670"><ele>1748</ele><time>2005-07-21T13:52:28Z</time></trkpt>
<trkpt lat="46.36015000" lon="7.01206670"><ele>1752</ele><time>2005-07-21T13:52:45Z</time></trkpt>
<trkpt lat="46.36041670" lon="7.01208330"><ele>1755</ele><time>2005-07-21T13:52:59Z</time></trkpt>
<trkpt lat="46.36105000" lon="7.01231670"><ele>1757</ele><time>2005-07-21T13:53:30Z</time></trkpt>
<trkpt lat="46.36128330" lon="7.01216670"><ele>1759</ele><time>2005-07-21T13:53:41Z</time></trkpt>
<trkpt lat="46.36150000" lon="7.01215000"><ele>1762</ele><time>2005-07-21T13:53:51Z</time></trkpt>
<trkpt lat="46.36166670" lon="7.01233330"><ele>1764</ele><time>2005-07-21T13:54:04Z</time></trkpt>
<trkpt lat="46.36196670" lon="7.01260000"><ele>1766</ele><time>2005-07-21T13:54:20Z</time></trkpt>
<trkpt lat="46.36251670" lon="7.01321670"><ele>1770</ele><time>2005-07-21T13:54:52Z</time></trkpt>
<trkpt lat="46.36288330" lon="7.01313330"><ele>1774</ele><time>2005-07-21T13:55:12Z</time></trkpt>
<trkpt lat="46.36316670" lon="7.01293330"><ele>1777</ele><time>2005-07-21T13:55:28Z</time></trkpt>
<trkpt lat="46.36340000" lon="7.01283330"><ele>1780</ele><time>2005-07-21T13:55:42Z</time></trkpt>
<trkpt lat="46.36370000" lon="7.01281670"><ele>1782</ele><time>2005-07-21T13:55:58Z</time></trkpt>
<trkpt lat="46.36403330" lon="7.01321670"><ele>1786</ele><time>2005-07-21T13:56:24Z</time></trkpt>
<trkpt lat="46.36415000" lon="7.01345000"><ele>1790</ele><time>2005-07-21T13:56:37Z</time></trkpt>
<trkpt lat="46.36435000" lon="7.01365000"><ele>1791</ele><time>2005-07-21T13:56:52Z</time></trkpt>
<trkpt lat="46.36458330" lon="7.01366670"><ele>1792</ele><time>2005-07-21T13:57:05Z</time></trkpt>
<trkpt lat="46.36481670" lon="7.01376670"><ele>1793</ele><time>2005-07-21T13:57:19Z</time></trkpt>
<trkpt lat="46.36486670" lon="7.01390000"><ele>1793</ele><time>2005-07-21T13:57:23Z</time></trkpt>
<trkpt lat="46.36480000" lon="7.01468330"><ele>1805</ele><time>2005-07-21T13:57:47Z</time></trkpt>
<trkpt lat="46.36486670" lon="7.01503330"><ele>1808</ele><time>2005-07-21T13:58:01Z</time></trkpt>
<trkpt lat="46.36526670" lon="7.01625000"><ele>1813</ele><time>2005-07-21T13:58:58Z</time></trkpt>
<trkpt lat="46.36540000" lon="7.01650000"><ele>1815</ele><time>2005-07-21T13:59:13Z</time></trkpt>
<trkpt lat="46.36590000" lon="7.01718330"><ele>1822</ele><time>2005-07-21T13:59:51Z</time></trkpt>
<trkpt lat="46.36608330" lon="7.01725000"><ele>1824</ele><time>2005-07-21T14:00:03Z</time></trkpt>
<trkpt lat="46.36623330" lon="7.01710000"><ele>1825</ele><time>2005-07-21T14:00:14Z</time></trkpt>
<trkpt lat="46.36623330" lon="7.01678330"><ele>1826</ele><time>2005-07-21T14:00:28Z</time></trkpt>
<trkpt lat="46.36613330" lon="7.01643330"><ele>1829</ele><time>2005-07-21T14:00:44Z</time></trkpt>
<trkpt lat="46.36605000" lon="7.01603330"><ele>1831</ele><time>2005-07-21T14:01:02Z</time></trkpt>
<trkpt lat="46.36608330" lon="7.01588330"><ele>1832</ele><time>2005-07-21T14:01:09Z</time></trkpt>
<trkpt lat="46.36628330" lon="7.01576670"><ele>1835</ele><time>2005-07-21T14:01:22Z</time></trkpt>
<trkpt lat="46.36645000" lon="7.01546670"><ele>1835</ele><time>2005-07-21T14:01:39Z</time></trkpt>
<trkpt lat="46.36650000" lon="7.01508330"><ele>1839</ele><time>2005-07-21T14:01:55Z</time></trkpt>
<trkpt lat="46.36636670" lon="7.01478330"><ele>1841</ele><time>2005-07-21T14:02:10Z</time></trkpt>
<trkpt lat="46.36621670" lon="7.01458330"><ele>1843</ele><time>2005-07-21T14:02:23Z</time></trkpt>
<trkpt lat="46.36620000" lon="7.01453330"><ele>1846</ele><time>2005-07-21T14:02:33Z</time></trkpt>
<trkpt lat="46.36615000" lon="7.01433330"><ele>1844</ele><time>2005-07-21T14:03:05Z</time></trkpt>
<trkpt lat="46.36613330" lon="7.01373330"><ele>1849</ele><time>2005-07-21T14:03:30Z</time></trkpt>
<trkpt lat="46.36615000" lon="7.01353330"><ele>1852</ele><time>2005-07-21T14:03:41Z</time></trkpt>
<trkpt lat="46.36630000" lon="7.01346670"><ele>1855</ele><time>2005-07-21T14:03:55Z</time></trkpt>
<trkpt lat="46.36651670" lon="7.01346670"><ele>1857</ele><time>2005-07-21T14:04:11Z</time></trkpt>
<trkpt lat="46.36668330" lon="7.01350000"><ele>1859</ele><time>2005-07-21T14:04:23Z</time></trkpt>
<trkpt lat="46.36680000" lon="7.01356670"><ele>1861</ele><time>2005-07-21T14:04:31Z</time></trkpt>
<trkpt lat="46.36685000" lon="7.01353330"><ele>1861</ele><time>2005-07-21T14:04:37Z</time></trkpt>
<trkpt lat="46.36690000" lon="7.01343330"><ele>1863</ele><time>2005-07-21T14:04:44Z</time></trkpt>
<trkpt lat="46.36680000" lon="7.01335000"><ele>1866</ele><time>2005-07-21T14:04:53Z</time></trkpt>
<trkpt lat="46.36656670" lon="7.01328330"><ele>1867</ele><time>2005-07-21T14:05:10Z</time></trkpt>
<trkpt lat="46.36645000" lon="7.01315000"><ele>1871</ele><time>2005-07-21T14:05:23Z</time></trkpt>
<trkpt lat="46.36643330" lon="7.01308330"><ele>1872</ele><time>2005-07-21T14:05:27Z</time></trkpt>
<trkpt lat="46.36635000" lon="7.01225000"><ele>1876</ele><time>2005-07-21T14:06:51Z</time></trkpt>
<trkpt lat="46.36635000" lon="7.01195000"><ele>1881</ele><time>2005-07-21T14:07:04Z</time></trkpt>
<trkpt lat="46.36653330" lon="7.01145000"><ele>1886</ele><time>2005-07-21T14:07:28Z</time></trkpt>
<trkpt lat="46.36651670" lon="7.01111670"><ele>1888</ele><time>2005-07-21T14:07:43Z</time></trkpt>
<trkpt lat="46.36643330" lon="7.01085000"><ele>1890</ele><time>2005-07-21T14:07:56Z</time></trkpt>
<trkpt lat="46.36621670" lon="7.01050000"><ele>1893</ele><time>2005-07-21T14:08:19Z</time></trkpt>
<trkpt lat="46.36593330" lon="7.01045000"><ele>1895</ele><time>2005-07-21T14:08:37Z</time></trkpt>
<trkpt lat="46.36583330" lon="7.01025000"><ele>1898</ele><time>2005-07-21T14:08:48Z</time></trkpt>
<trkpt lat="46.36591670" lon="7.01000000"><ele>1902</ele><time>2005-07-21T14:08:59Z</time></trkpt>
<trkpt lat="46.36611670" lon="7.00976670"><ele>1904</ele><time>2005-07-21T14:09:11Z</time></trkpt>
<trkpt lat="46.36595000" lon="7.00923330"><ele>1905</ele><time>2005-07-21T14:09:35Z</time></trkpt>
<trkpt lat="46.36578330" lon="7.00890000"><ele>1909</ele><time>2005-07-21T14:09:52Z</time></trkpt>
<trkpt lat="46.36538330" lon="7.00835000"><ele>1916</ele><time>2005-07-21T14:10:25Z</time></trkpt>
<trkpt lat="46.36518330" lon="7.00816670"><ele>1914</ele><time>2005-07-21T14:10:37Z</time></trkpt>
<trkpt lat="46.36496670" lon="7.00815000"><ele>1911</ele><time>2005-07-21T14:10:56Z</time></trkpt>
<trkpt lat="46.36490000" lon="7.00820000"><ele>1909</ele><time>2005-07-21T14:11:06Z</time></trkpt>
<trkpt lat="46.36463330" lon="7.00796670"><ele>1906</ele><time>2005-07-21T14:11:13Z</time></trkpt>
<trkpt lat="46.36450000" lon="7.00763330"><ele>1905</ele><time>2005-07-21T14:11:17Z</time></trkpt>
<trkpt lat="46.36436670" lon="7.00695000"><ele>1900</ele><time>2005-07-21T14:11:27Z</time></trkpt>
<trkpt lat="46.36441670" lon="7.00648330"><ele>1899</ele><time>2005-07-21T14:11:37Z</time></trkpt>
<trkpt lat="46.36448330" lon="7.00635000"><ele>1898</ele><time>2005-07-21T14:11:46Z</time></trkpt>
<trkpt lat="46.36450000" lon="7.00635000"><ele>1897</ele><time>2005-07-21T14:12:08Z</time></trkpt>
<trkpt lat="46.36450000" lon="7.00636670"><ele>1894</ele><time>2005-07-21T14:13:46Z</time></trkpt>
<trkpt lat="46.36448330" lon="7.00633330"><ele>1895</ele><time>2005-07-21T14:14:38Z</time></trkpt>
<trkpt lat="46.36440000" lon="7.00660000"><ele>1897</ele><time>2005-07-21T14:14:58Z</time></trkpt>
<trkpt lat="46.36436670" lon="7.00691670"><ele>1901</ele><time>2005-07-21T14:15:17Z</time></trkpt>
<trkpt lat="46.36456670" lon="7.00766670"><ele>1906</ele><time>2005-07-21T14:16:06Z</time></trkpt>
<trkpt lat="46.36458330" lon="7.00783330"><ele>1907</ele><time>2005-07-21T14:16:17Z</time></trkpt>
<trkpt lat="46.36465000" lon="7.00796670"><ele>1910</ele><time>2005-07-21T14:16:27Z</time></trkpt>
<trkpt lat="46.36475000" lon="7.00808330"><ele>1912</ele><time>2005-07-21T14:16:39Z</time></trkpt>
<trkpt lat="46.36488330" lon="7.00816670"><ele>1913</ele><time>2005-07-21T14:16:51Z</time></trkpt>
<trkpt lat="46.36516670" lon="7.00816670"><ele>1917</ele><time>2005-07-21T14:17:11Z</time></trkpt>
<trkpt lat="46.36536670" lon="7.00830000"><ele>1919</ele><time>2005-07-21T14:17:27Z</time></trkpt>
<trkpt lat="46.36586670" lon="7.00896670"><ele>1910</ele><time>2005-07-21T14:17:49Z</time></trkpt>
<trkpt lat="46.36601670" lon="7.00928330"><ele>1907</ele><time>2005-07-21T14:17:53Z</time></trkpt>
<trkpt lat="46.36613330" lon="7.00965000"><ele>1904</ele><time>2005-07-21T14:17:57Z</time></trkpt>
<trkpt lat="46.36600000" lon="7.01001670"><ele>1903</ele><time>2005-07-21T14:18:03Z</time></trkpt>
<trkpt lat="46.36585000" lon="7.01021670"><ele>1902</ele><time>2005-07-21T14:18:09Z</time></trkpt>
<trkpt lat="46.36600000" lon="7.01050000"><ele>1899</ele><time>2005-07-21T14:18:16Z</time></trkpt>
<trkpt lat="46.36623330" lon="7.01051670"><ele>1896</ele><time>2005-07-21T14:18:21Z</time></trkpt>
<trkpt lat="46.36646670" lon="7.01091670"><ele>1892</ele><time>2005-07-21T14:18:27Z</time></trkpt>
<trkpt lat="46.36653330" lon="7.01111670"><ele>1890</ele><time>2005-07-21T14:18:30Z</time></trkpt>
<trkpt lat="46.36656670" lon="7.01126670"><ele>1889</ele><time>2005-07-21T14:18:32Z</time></trkpt>
<trkpt lat="46.36645000" lon="7.01181670"><ele>1884</ele><time>2005-07-21T14:18:38Z</time></trkpt>
<trkpt lat="46.36635000" lon="7.01201670"><ele>1883</ele><time>2005-07-21T14:18:42Z</time></trkpt>
<trkpt lat="46.36630000" lon="7.01241670"><ele>1878</ele><time>2005-07-21T14:18:52Z</time></trkpt>
<trkpt lat="46.36631670" lon="7.01290000"><ele>1870</ele><time>2005-07-21T14:19:04Z</time></trkpt>
<trkpt lat="46.36626670" lon="7.01328330"><ele>1865</ele><time>2005-07-21T14:19:14Z</time></trkpt>
<trkpt lat="46.36611670" lon="7.01373330"><ele>1858</ele><time>2005-07-21T14:19:25Z</time></trkpt>
<trkpt lat="46.36620000" lon="7.01453330"><ele>1851</ele><time>2005-07-21T14:19:36Z</time></trkpt>
<trkpt lat="46.36651670" lon="7.01508330"><ele>1845</ele><time>2005-07-21T14:19:52Z</time></trkpt>
<trkpt lat="46.36650000" lon="7.01540000"><ele>1843</ele><time>2005-07-21T14:20:01Z</time></trkpt>
<trkpt lat="46.36638330" lon="7.01566670"><ele>1841</ele><time>2005-07-21T14:20:10Z</time></trkpt>
<trkpt lat="46.36611670" lon="7.01591670"><ele>1835</ele><time>2005-07-21T14:20:20Z</time></trkpt>
<trkpt lat="46.36608330" lon="7.01633330"><ele>1833</ele><time>2005-07-21T14:20:25Z</time></trkpt>
<trkpt lat="46.36621670" lon="7.01678330"><ele>1829</ele><time>2005-07-21T14:20:29Z</time></trkpt>
<trkpt lat="46.36611670" lon="7.01723330"><ele>1826</ele><time>2005-07-21T14:20:34Z</time></trkpt>
<trkpt lat="46.36585000" lon="7.01711670"><ele>1822</ele><time>2005-07-21T14:20:38Z</time></trkpt>
<trkpt lat="46.36540000" lon="7.01650000"><ele>1816</ele><time>2005-07-21T14:20:45Z</time></trkpt>
<trkpt lat="46.36493330" lon="7.01528330"><ele>1807</ele><time>2005-07-21T14:20:54Z</time></trkpt>
<trkpt lat="46.36481670" lon="7.01491670"><ele>1804</ele><time>2005-07-21T14:20:57Z</time></trkpt>
<trkpt lat="46.36485000" lon="7.01376670"><ele>1799</ele><time>2005-07-21T14:21:08Z</time></trkpt>
<trkpt lat="46.36436670" lon="7.01358330"><ele>1795</ele><time>2005-07-21T14:21:16Z</time></trkpt>
<trkpt lat="46.36420000" lon="7.01343330"><ele>1792</ele><time>2005-07-21T14:21:20Z</time></trkpt>
<trkpt lat="46.36385000" lon="7.01296670"><ele>1790</ele><time>2005-07-21T14:21:26Z</time></trkpt>
<trkpt lat="46.36340000" lon="7.01283330"><ele>1786</ele><time>2005-07-21T14:21:31Z</time></trkpt>
<trkpt lat="46.36313330" lon="7.01296670"><ele>1783</ele><time>2005-07-21T14:21:34Z</time></trkpt>
<trkpt lat="46.36291670" lon="7.01311670"><ele>1782</ele><time>2005-07-21T14:21:37Z</time></trkpt>
<trkpt lat="46.36263330" lon="7.01320000"><ele>1779</ele><time>2005-07-21T14:21:42Z</time></trkpt>
<trkpt lat="46.36246670" lon="7.01313330"><ele>1777</ele><time>2005-07-21T14:21:46Z</time></trkpt>
<trkpt lat="46.36195000" lon="7.01260000"><ele>1773</ele><time>2005-07-21T14:21:55Z</time></trkpt>
<trkpt lat="46.36180000" lon="7.01248330"><ele>1772</ele><time>2005-07-21T14:21:57Z</time></trkpt>
<trkpt lat="46.36153330" lon="7.01216670"><ele>1769</ele><time>2005-07-21T14:22:01Z</time></trkpt>
<trkpt lat="46.36096670" lon="7.01225000"><ele>1764</ele><time>2005-07-21T14:22:10Z</time></trkpt>
<trkpt lat="46.36040000" lon="7.01203330"><ele>1759</ele><time>2005-07-21T14:22:17Z</time></trkpt>
<trkpt lat="46.35966670" lon="7.01211670"><ele>1754</ele><time>2005-07-21T14:22:26Z</time></trkpt>
<trkpt lat="46.35945000" lon="7.01200000"><ele>1751</ele><time>2005-07-21T14:22:30Z</time></trkpt>
<trkpt lat="46.35920000" lon="7.01175000"><ele>1750</ele><time>2005-07-21T14:22:34Z</time></trkpt>
<trkpt lat="46.35860000" lon="7.01156670"><ele>1746</ele><time>2005-07-21T14:22:41Z</time></trkpt>
<trkpt lat="46.35810000" lon="7.01121670"><ele>1741</ele><time>2005-07-21T14:22:47Z</time></trkpt>
<trkpt lat="46.35770000" lon="7.01103330"><ele>1737</ele><time>2005-07-21T14:22:52Z</time></trkpt>
<trkpt lat="46.35728330" lon="7.01065000"><ele>1732</ele><time>2005-07-21T14:22:58Z</time></trkpt>
<trkpt lat="46.35688330" lon="7.01058330"><ele>1731</ele><time>2005-07-21T14:23:03Z</time></trkpt>
<trkpt lat="46.35660000" lon="7.01076670"><ele>1731</ele><time>2005-07-21T14:23:07Z</time></trkpt>
<trkpt lat="46.35628330" lon="7.01120000"><ele>1730</ele><time>2005-07-21T14:23:13Z</time></trkpt>
<trkpt lat="46.35590000" lon="7.01118330"><ele>1729</ele><time>2005-07-21T14:23:20Z</time></trkpt>
<trkpt lat="46.35546670" lon="7.01085000"><ele>1728</ele><time>2005-07-21T14:23:28Z</time></trkpt>
<trkpt lat="46.35493330" lon="7.01066670"><ele>1726</ele><time>2005-07-21T14:23:35Z</time></trkpt>
<trkpt lat="46.35456670" lon="7.01030000"><ele>1724</ele><time>2005-07-21T14:23:41Z</time></trkpt>
<trkpt lat="46.35426670" lon="7.01013330"><ele>1722</ele><time>2005-07-21T14:23:45Z</time></trkpt>
<trkpt lat="46.35391670" lon="7.00976670"><ele>1720</ele><time>2005-07-21T14:23:50Z</time></trkpt>
<trkpt lat="46.35315000" lon="7.00928330"><ele>1715</ele><time>2005-07-21T14:24:00Z</time></trkpt>
<trkpt lat="46.35265000" lon="7.00860000"><ele>1712</ele><time>2005-07-21T14:24:09Z</time></trkpt>
<trkpt lat="46.35243330" lon="7.00845000"><ele>1712</ele><time>2005-07-21T14:24:12Z</time></trkpt>
<trkpt lat="46.35208330" lon="7.00830000"><ele>1710</ele><time>2005-07-21T14:24:18Z</time></trkpt>
<trkpt lat="46.35201670" lon="7.00836670"><ele>1708</ele><time>2005-07-21T14:24:21Z</time></trkpt>
<trkpt lat="46.35210000" lon="7.00846670"><ele>1707</ele><time>2005-07-21T14:24:23Z</time></trkpt>
<trkpt lat="46.35225000" lon="7.00881670"><ele>1703</ele><time>2005-07-21T14:24:28Z</time></trkpt>
<trkpt lat="46.35201670" lon="7.00895000"><ele>1698</ele><time>2005-07-21T14:24:33Z</time></trkpt>
<trkpt lat="46.35135000" lon="7.00880000"><ele>1689</ele><time>2005-07-21T14:24:44Z</time></trkpt>
<trkpt lat="46.35101670" lon="7.00860000"><ele>1684</ele><time>2005-07-21T14:24:52Z</time></trkpt>
<trkpt lat="46.35031670" lon="7.00845000"><ele>1675</ele><time>2005-07-21T14:25:02Z</time></trkpt>
<trkpt lat="46.34995000" lon="7.00816670"><ele>1670</ele><time>2005-07-21T14:25:09Z</time></trkpt>
<trkpt lat="46.34986670" lon="7.00798330"><ele>1670</ele><time>2005-07-21T14:25:12Z</time></trkpt>
<trkpt lat="46.34960000" lon="7.00691670"><ele>1668</ele><time>2005-07-21T14:25:21Z</time></trkpt>
<trkpt lat="46.34950000" lon="7.00585000"><ele>1666</ele><time>2005-07-21T14:25:42Z</time></trkpt>
<trkpt lat="46.34943330" lon="7.00568330"><ele>1665</ele><time>2005-07-21T14:26:00Z</time></trkpt>
<trkpt lat="46.34928330" lon="7.00538330"><ele>1666</ele><time>2005-07-21T14:26:39Z</time></trkpt>
<trkpt lat="46.34895000" lon="7.00506670"><ele>1675</ele><time>2005-07-21T14:27:41Z</time></trkpt>
<trkpt lat="46.34881670" lon="7.00486670"><ele>1674</ele><time>2005-07-21T14:28:00Z</time></trkpt>
<trkpt lat="46.34845000" lon="7.00410000"><ele>1682</ele><time>2005-07-21T14:28:58Z</time></trkpt>
<trkpt lat="46.34830000" lon="7.00383330"><ele>1685</ele><time>2005-07-21T14:29:14Z</time></trkpt>
<trkpt lat="46.34810000" lon="7.00365000"><ele>1686</ele><time>2005-07-21T14:29:30Z</time></trkpt>
<trkpt lat="46.34793330" lon="7.00353330"><ele>1687</ele><time>2005-07-21T14:29:43Z</time></trkpt>
<trkpt lat="46.34785000" lon="7.00338330"><ele>1688</ele><time>2005-07-21T14:29:53Z</time></trkpt>
<trkpt lat="46.34775000" lon="7.00268330"><ele>1696</ele><time>2005-07-21T14:30:27Z</time></trkpt>
<trkpt lat="46.34775000" lon="7.00225000"><ele>1699</ele><time>2005-07-21T14:30:45Z</time></trkpt>
<trkpt lat="46.34768330" lon="7.00150000"><ele>1701</ele><time>2005-07-21T14:31:19Z</time></trkpt>
<trkpt lat="46.34746670" lon="7.00055000"><ele>1710</ele><time>2005-07-21T14:32:07Z</time></trkpt>
<trkpt lat="46.34676670" lon="6.99956670"><ele>1707</ele><time>2005-07-21T14:32:37Z</time></trkpt>
<trkpt lat="46.34620000" lon="6.99860000"><ele>1705</ele><time>2005-07-21T14:32:54Z</time></trkpt>
<trkpt lat="46.34611670" lon="6.99811670"><ele>1702</ele><time>2005-07-21T14:33:00Z</time></trkpt>
<trkpt lat="46.34561670" lon="6.99721670"><ele>1695</ele><time>2005-07-21T14:33:12Z</time></trkpt>
<trkpt lat="46.34548330" lon="6.99680000"><ele>1693</ele><time>2005-07-21T14:33:19Z</time></trkpt>
<trkpt lat="46.34486670" lon="6.99558330"><ele>1685</ele><time>2005-07-21T14:33:43Z</time></trkpt>
<trkpt lat="46.34456670" lon="6.99490000"><ele>1680</ele><time>2005-07-21T14:33:57Z</time></trkpt>
<trkpt lat="46.34450000" lon="6.99386670"><ele>1671</ele><time>2005-07-21T14:34:18Z</time></trkpt>
<trkpt lat="46.34458330" lon="6.99350000"><ele>1664</ele><time>2005-07-21T14:34:46Z</time></trkpt>
<trkpt lat="46.34458330" lon="6.99291670"><ele>1663</ele><time>2005-07-21T14:34:56Z</time></trkpt>
<trkpt lat="46.34466670" lon="6.99226670"><ele>1657</ele><time>2005-07-21T14:35:08Z</time></trkpt>
<trkpt lat="46.34471670" lon="6.99216670"><ele>1656</ele><time>2005-07-21T14:35:10Z</time></trkpt>
<trkpt lat="46.34495000" lon="6.99180000"><ele>1652</ele><time>2005-07-21T14:35:18Z</time></trkpt>
<trkpt lat="46.34486670" lon="6.99178330"><ele>1651</ele><time>2005-07-21T14:35:23Z</time></trkpt>
<trkpt lat="46.34465000" lon="6.99191670"><ele>1648</ele><time>2005-07-21T14:35:29Z</time></trkpt>
<trkpt lat="46.34441670" lon="6.99215000"><ele>1644</ele><time>2005-07-21T14:35:34Z</time></trkpt>
<trkpt lat="46.34415000" lon="6.99253330"><ele>1639</ele><time>2005-07-21T14:35:40Z</time></trkpt>
<trkpt lat="46.34403330" lon="6.99291670"><ele>1635</ele><time>2005-07-21T14:35:44Z</time></trkpt>
<trkpt lat="46.34385000" lon="6.99386670"><ele>1629</ele><time>2005-07-21T14:35:53Z</time></trkpt>
<trkpt lat="46.34376670" lon="6.99478330"><ele>1621</ele><time>2005-07-21T14:36:04Z</time></trkpt>
<trkpt lat="46.34418330" lon="6.99738330"><ele>1604</ele><time>2005-07-21T14:36:43Z</time></trkpt>
<trkpt lat="46.34445000" lon="6.99818330"><ele>1600</ele><time>2005-07-21T14:36:54Z</time></trkpt>
<trkpt lat="46.34456670" lon="6.99890000"><ele>1593</ele><time>2005-07-21T14:37:04Z</time></trkpt>
<trkpt lat="46.34456670" lon="6.99905000"><ele>1591</ele><time>2005-07-21T14:37:10Z</time></trkpt>
<trkpt lat="46.34448330" lon="6.99898330"><ele>1588</ele><time>2005-07-21T14:37:15Z</time></trkpt>
<trkpt lat="46.34421670" lon="6.99841670"><ele>1583</ele><time>2005-07-21T14:37:24Z</time></trkpt>
<trkpt lat="46.34411670" lon="6.99863330"><ele>1579</ele><time>2005-07-21T14:37:29Z</time></trkpt>
<trkpt lat="46.34413330" lon="6.99880000"><ele>1577</ele><time>2005-07-21T14:37:31Z</time></trkpt>
<trkpt lat="46.34413330" lon="6.99970000"><ele>1569</ele><time>2005-07-21T14:37:42Z</time></trkpt>
<trkpt lat="46.34421670" lon="7.00020000"><ele>1567</ele><time>2005-07-21T14:37:47Z</time></trkpt>
<trkpt lat="46.34415000" lon="7.00061670"><ele>1560</ele><time>2005-07-21T14:37:52Z</time></trkpt>
<trkpt lat="46.34418330" lon="7.00096670"><ele>1556</ele><time>2005-07-21T14:37:56Z</time></trkpt>
<trkpt lat="46.34433330" lon="7.00148330"><ele>1552</ele><time>2005-07-21T14:38:01Z</time></trkpt>
<trkpt lat="46.34440000" lon="7.00181670"><ele>1547</ele><time>2005-07-21T14:38:05Z</time></trkpt>
<trkpt lat="46.34493330" lon="7.00296670"><ele>1534</ele><time>2005-07-21T14:38:17Z</time></trkpt>
<trkpt lat="46.34486670" lon="7.00313330"><ele>1530</ele><time>2005-07-21T14:38:22Z</time></trkpt>
<trkpt lat="46.34445000" lon="7.00291670"><ele>1524</ele><time>2005-07-21T14:38:29Z</time></trkpt>
<trkpt lat="46.34421670" lon="7.00285000"><ele>1520</ele><time>2005-07-21T14:38:33Z</time></trkpt>
<trkpt lat="46.34403330" lon="7.00266670"><ele>1517</ele><time>2005-07-21T14:38:37Z</time></trkpt>
<trkpt lat="46.34368330" lon="7.00196670"><ele>1507</ele><time>2005-07-21T14:38:44Z</time></trkpt>
<trkpt lat="46.34328330" lon="7.00181670"><ele>1502</ele><time>2005-07-21T14:38:50Z</time></trkpt>
<trkpt lat="46.34283330" lon="7.00143330"><ele>1494</ele><time>2005-07-21T14:38:58Z</time></trkpt>
<trkpt lat="46.34268330" lon="7.00113330"><ele>1491</ele><time>2005-07-21T14:39:03Z</time></trkpt>
<trkpt lat="46.34246670" lon="7.00043330"><ele>1483</ele><time>2005-07-21T14:39:11Z</time></trkpt>
<trkpt lat="46.34241670" lon="7.00010000"><ele>1481</ele><time>2005-07-21T14:39:16Z</time></trkpt>
<trkpt lat="46.34231670" lon="7.00015000"><ele>1479</ele><time>2005-07-21T14:39:22Z</time></trkpt>
<trkpt lat="46.34220000" lon="7.00163330"><ele>1465</ele><time>2005-07-21T14:39:36Z</time></trkpt>
<trkpt lat="46.34243330" lon="7.00238330"><ele>1457</ele><time>2005-07-21T14:39:42Z</time></trkpt>
<trkpt lat="46.34316670" lon="7.00360000"><ele>1450</ele><time>2005-07-21T14:39:53Z</time></trkpt>
<trkpt lat="46.34375000" lon="7.00438330"><ele>1444</ele><time>2005-07-21T14:40:01Z</time></trkpt>
<trkpt lat="46.34390000" lon="7.00471670"><ele>1442</ele><time>2005-07-21T14:40:05Z</time></trkpt>
<trkpt lat="46.34403330" lon="7.00488330"><ele>1440</ele><time>2005-07-21T14:40:09Z</time></trkpt>
<trkpt lat="46.34425000" lon="7.00508330"><ele>1438</ele><time>2005-07-21T14:40:14Z</time></trkpt>
<trkpt lat="46.34471670" lon="7.00673330"><ele>1431</ele><time>2005-07-21T14:40:30Z</time></trkpt>
<trkpt lat="46.34471670" lon="7.00706670"><ele>1431</ele><time>2005-07-21T14:40:32Z</time></trkpt>
<trkpt lat="46.34490000" lon="7.00805000"><ele>1426</ele><time>2005-07-21T14:40:39Z</time></trkpt>
<trkpt lat="46.34486670" lon="7.00815000"><ele>1421</ele><time>2005-07-21T14:40:53Z</time></trkpt>
<trkpt lat="46.34518330" lon="7.00865000"><ele>1416</ele><time>2005-07-21T14:41:12Z</time></trkpt>
<trkpt lat="46.34531670" lon="7.00911670"><ele>1415</ele><time>2005-07-21T14:41:16Z</time></trkpt>
<trkpt lat="46.34545000" lon="7.00976670"><ele>1411</ele><time>2005-07-21T14:41:21Z</time></trkpt>
<trkpt lat="46.34533330" lon="7.00995000"><ele>1408</ele><time>2005-07-21T14:41:25Z</time></trkpt>
<trkpt lat="46.34530000" lon="7.00993330"><ele>1408</ele><time>2005-07-21T14:41:26Z</time></trkpt>
<trkpt lat="46.34501670" lon="7.00926670"><ele>1405</ele><time>2005-07-21T14:41:36Z</time></trkpt>
<trkpt lat="46.34448330" lon="7.00871670"><ele>1402</ele><time>2005-07-21T14:41:50Z</time></trkpt>
<trkpt lat="46.34400000" lon="7.00805000"><ele>1397</ele><time>2005-07-21T14:42:01Z</time></trkpt>
<trkpt lat="46.34368330" lon="7.00775000"><ele>1396</ele><time>2005-07-21T14:42:07Z</time></trkpt>
<trkpt lat="46.34351670" lon="7.00785000"><ele>1395</ele><time>2005-07-21T14:42:12Z</time></trkpt>
<trkpt lat="46.34361670" lon="7.00813330"><ele>1391</ele><time>2005-07-21T14:42:16Z</time></trkpt>
<trkpt lat="46.34418330" lon="7.00886670"><ele>1384</ele><time>2005-07-21T14:42:27Z</time></trkpt>
<trkpt lat="46.34448330" lon="7.00943330"><ele>1380</ele><time>2005-07-21T14:42:32Z</time></trkpt>
<trkpt lat="46.34460000" lon="7.00995000"><ele>1379</ele><time>2005-07-21T14:42:36Z</time></trkpt>
<trkpt lat="46.34463330" lon="7.01021670"><ele>1378</ele><time>2005-07-21T14:42:38Z</time></trkpt>
<trkpt lat="46.34526670" lon="7.01233330"><ele>1376</ele><time>2005-07-21T14:42:57Z</time></trkpt>
<trkpt lat="46.34560000" lon="7.01283330"><ele>1373</ele><time>2005-07-21T14:43:03Z</time></trkpt>
<trkpt lat="46.34605000" lon="7.01441670"><ele>1371</ele><time>2005-07-21T14:43:15Z</time></trkpt>
<trkpt lat="46.34666670" lon="7.01566670"><ele>1363</ele><time>2005-07-21T14:43:24Z</time></trkpt>
<trkpt lat="46.34740000" lon="7.01748330"><ele>1341</ele><time>2005-07-21T14:43:39Z</time></trkpt>
<trkpt lat="46.34731670" lon="7.01775000"><ele>1337</ele><time>2005-07-21T14:43:45Z</time></trkpt>
<trkpt lat="46.34671670" lon="7.01723330"><ele>1331</ele><time>2005-07-21T14:43:58Z</time></trkpt>
<trkpt lat="46.34661670" lon="7.01738330"><ele>1329</ele><time>2005-07-21T14:44:06Z</time></trkpt>
<trkpt lat="46.34675000" lon="7.01771670"><ele>1327</ele><time>2005-07-21T14:44:12Z</time></trkpt>
<trkpt lat="46.34673330" lon="7.01790000"><ele>1326</ele><time>2005-07-21T14:44:18Z</time></trkpt>
</trkseg></trk></gpx>